YHID

Horn Island Airport

Horn Island, Australia
TAF AMD YHID 162331Z 1623/1724 11005KT 9999 SCT020 SCT035 FM170000 04008KT 9999 SCT025 FM171200 VRB05KT 9999 SCT020 SCT035
Issued Valid From Valid To
Jan-16 @ 23:31 UTC
(5 hours ago)
Jan-16 @ 23:00 UTC
(6 hours ago)
Jan-18 @ 00:00 UTC
(in 19 hours)
Expired Click to View Jan-16 @ 23:00 to Jan-17 @ 00:00
TAF AMD YHID 162331Z 1623/1724 11005KT 9999 SCT020 SCT035
Wind Visibility Clouds
110° at 5 knots 10,000+ meters
  • Scattered at 2,000' AGL
  • Scattered at 3,500' AGL
From Jan-17 @ 00:00 to Jan-17 @ 12:00
FM170000 04008KT 9999 SCT025
Wind Visibility Clouds
40° at 8 knots 10,000+ meters
  • Scattered at 2,500' AGL
From Jan-17 @ 12:00 to Jan-18 @ 00:00
FM171200 VRB05KT 9999 SCT020 SCT035
Wind Visibility Clouds
Variable at 5 knots 10,000+ meters
  • Scattered at 2,000' AGL
  • Scattered at 3,500' AGL
TAF AMD YHID 162331Z 1623/1724 11005KT 9999 SCT020 SCT035 FM170000 04008KT 9999 SCT025 FM171200 VRB05KT 9999 SCT020 SCT035
Issued Jan-16 @ 23:31 UTC
(5 hours ago)
Valid From Jan-16 @ 23:00 UTC
(6 hours ago)
Valid To Jan-18 @ 00:00 UTC
(in 19 hours)
Jan-16 @ 23:00 - Jan-17 @ 00:00
Wind Visibility
110° at 5 knots 10,000+ meters
Clouds
  • Scattered at 2,000' AGL
  • Scattered at 3,500' AGL
From Jan-17 @ 00:00 - Jan-17 @ 12:00
Wind Visibility
40° at 8 knots 10,000+ meters
Clouds
  • Scattered at 2,500' AGL
From Jan-17 @ 12:00 - Jan-18 @ 00:00
Wind Visibility
Variable at 5 knots 10,000+ meters
Clouds
  • Scattered at 2,000' AGL
  • Scattered at 3,500' AGL